sensor_id;sensor_type;location;lat;lon;timestamp;P1;durP1;ratioP1;P2;durP2;ratioP2
54372;SDS011;40271;48.798;10.178;2022-08-30T00:01:25;7.97;;;3.97;;
54372;SDS011;40271;48.798;10.178;2022-08-30T00:03:51;6.63;;;3.90;;
54372;SDS011;40271;48.798;10.178;2022-08-30T00:06:19;5.70;;;3.78;;
54372;SDS011;40271;48.798;10.178;2022-08-30T00:08:45;5.35;;;3.97;;
54372;SDS011;40271;48.798;10.178;2022-08-30T00:11:19;6.63;;;3.87;;
54372;SDS011;40271;48.798;10.178;2022-08-30T00:13:47;5.70;;;4.00;;
54372;SDS011;40271;48.798;10.178;2022-08-30T00:16:17;5.53;;;3.67;;
54372;SDS011;40271;48.798;10.178;2022-08-30T00:18:43;5.50;;;4.20;;
54372;SDS011;40271;48.798;10.178;2022-08-30T00:21:09;7.72;;;3.88;;
54372;SDS011;40271;48.798;10.178;2022-08-30T00:23:36;5.03;;;3.70;;
54372;SDS011;40271;48.798;10.178;2022-08-30T00:26:02;7.28;;;4.10;;
54372;SDS011;40271;48.798;10.178;2022-08-30T00:28:28;6.10;;;4.28;;
54372;SDS011;40271;48.798;10.178;2022-08-30T00:30:56;6.70;;;4.10;;
54372;SDS011;40271;48.798;10.178;2022-08-30T00:33:22;5.32;;;3.60;;
54372;SDS011;40271;48.798;10.178;2022-08-30T00:35:48;6.90;;;4.03;;
54372;SDS011;40271;48.798;10.178;2022-08-30T00:38:14;6.18;;;4.10;;
54372;SDS011;40271;48.798;10.178;2022-08-30T00:40:42;8.07;;;4.35;;
54372;SDS011;40271;48.798;10.178;2022-08-30T00:43:10;7.80;;;4.30;;
54372;SDS011;40271;48.798;10.178;2022-08-30T00:45:37;6.80;;;4.65;;
54372;SDS011;40271;48.798;10.178;2022-08-30T00:48:04;6.10;;;3.95;;
54372;SDS011;40271;48.798;10.178;2022-08-30T00:50:32;5.90;;;4.30;;
54372;SDS011;40271;48.798;10.178;2022-08-30T00:52:59;6.03;;;3.72;;
54372;SDS011;40271;48.798;10.178;2022-08-30T00:55:26;6.75;;;3.90;;
54372;SDS011;40271;48.798;10.178;2022-08-30T00:57:53;7.90;;;3.90;;
54372;SDS011;40271;48.798;10.178;2022-08-30T01:00:21;6.20;;;3.97;;
54372;SDS011;40271;48.798;10.178;2022-08-30T01:02:47;6.80;;;3.80;;
54372;SDS011;40271;48.798;10.178;2022-08-30T01:05:13;6.88;;;4.15;;
54372;SDS011;40271;48.798;10.178;2022-08-30T01:07:39;5.22;;;3.95;;
54372;SDS011;40271;48.798;10.178;2022-08-30T01:10:06;7.75;;;4.32;;
54372;SDS011;40271;48.798;10.178;2022-08-30T01:12:34;5.82;;;4.25;;
54372;SDS011;40271;48.798;10.178;2022-08-30T01:15:00;5.75;;;3.92;;
54372;SDS011;40271;48.798;10.178;2022-08-30T01:17:26;6.65;;;3.95;;
54372;SDS011;40271;48.798;10.178;2022-08-30T01:19:58;7.28;;;4.28;;
54372;SDS011;40271;48.798;10.178;2022-08-30T01:24:54;5.57;;;3.67;;
54372;SDS011;40271;48.798;10.178;2022-08-30T01:27:21;5.25;;;3.80;;
54372;SDS011;40271;48.798;10.178;2022-08-30T01:29:48;9.13;;;4.20;;
54372;SDS011;40271;48.798;10.178;2022-08-30T01:32:19;5.90;;;4.28;;
54372;SDS011;40271;48.798;10.178;2022-08-30T01:37:15;8.70;;;3.90;;
54372;SDS011;40271;48.798;10.178;2022-08-30T01:39:42;6.82;;;4.03;;
54372;SDS011;40271;48.798;10.178;2022-08-30T01:42:10;6.03;;;4.13;;
54372;SDS011;40271;48.798;10.178;2022-08-30T01:44:36;6.25;;;4.03;;
54372;SDS011;40271;48.798;10.178;2022-08-30T01:47:02;6.68;;;3.78;;
54372;SDS011;40271;48.798;10.178;2022-08-30T01:49:28;5.38;;;3.80;;
54372;SDS011;40271;48.798;10.178;2022-08-30T01:51:55;6.07;;;3.70;;
54372;SDS011;40271;48.798;10.178;2022-08-30T01:54:21;5.97;;;4.00;;
54372;SDS011;40271;48.798;10.178;2022-08-30T01:56:47;6.10;;;3.88;;
54372;SDS011;40271;48.798;10.178;2022-08-30T01:59:14;6.57;;;4.07;;
54372;SDS011;40271;48.798;10.178;2022-08-30T02:01:40;6.65;;;4.50;;
54372;SDS011;40271;48.798;10.178;2022-08-30T02:04:07;7.07;;;4.15;;
54372;SDS011;40271;48.798;10.178;2022-08-30T02:06:36;7.57;;;4.07;;
54372;SDS011;40271;48.798;10.178;2022-08-30T02:09:02;5.75;;;4.00;;
54372;SDS011;40271;48.798;10.178;2022-08-30T02:11:29;5.40;;;3.90;;
54372;SDS011;40271;48.798;10.178;2022-08-30T02:13:55;6.63;;;3.95;;
54372;SDS011;40271;48.798;10.178;2022-08-30T02:16:21;6.40;;;4.20;;
54372;SDS011;40271;48.798;10.178;2022-08-30T02:18:48;5.97;;;3.90;;
54372;SDS011;40271;48.798;10.178;2022-08-30T02:21:14;5.50;;;3.58;;
54372;SDS011;40271;48.798;10.178;2022-08-30T02:23:40;6.13;;;3.72;;
54372;SDS011;40271;48.798;10.178;2022-08-30T02:26:07;4.95;;;3.67;;
54372;SDS011;40271;48.798;10.178;2022-08-30T02:28:33;6.22;;;3.88;;
54372;SDS011;40271;48.798;10.178;2022-08-30T02:31:00;7.90;;;4.13;;
54372;SDS011;40271;48.798;10.178;2022-08-30T02:33:26;9.32;;;4.07;;
54372;SDS011;40271;48.798;10.178;2022-08-30T02:35:52;5.63;;;3.72;;
54372;SDS011;40271;48.798;10.178;2022-08-30T02:38:20;6.88;;;3.85;;
54372;SDS011;40271;48.798;10.178;2022-08-30T02:40:47;6.05;;;4.07;;
54372;SDS011;40271;48.798;10.178;2022-08-30T02:43:14;7.45;;;3.90;;
54372;SDS011;40271;48.798;10.178;2022-08-30T02:45:40;8.65;;;3.88;;
54372;SDS011;40271;48.798;10.178;2022-08-30T02:48:06;5.35;;;3.55;;
54372;SDS011;40271;48.798;10.178;2022-08-30T02:50:32;5.10;;;3.75;;
54372;SDS011;40271;48.798;10.178;2022-08-30T02:52:58;6.28;;;3.88;;
54372;SDS011;40271;48.798;10.178;2022-08-30T02:55:24;7.22;;;4.63;;
54372;SDS011;40271;48.798;10.178;2022-08-30T02:57:50;6.53;;;4.00;;
54372;SDS011;40271;48.798;10.178;2022-08-30T03:00:17;5.55;;;3.78;;
54372;SDS011;40271;48.798;10.178;2022-08-30T03:02:44;5.75;;;3.90;;
54372;SDS011;40271;48.798;10.178;2022-08-30T03:05:10;6.30;;;4.05;;
54372;SDS011;40271;48.798;10.178;2022-08-30T03:07:37;8.63;;;4.20;;
54372;SDS011;40271;48.798;10.178;2022-08-30T03:10:03;5.50;;;4.03;;
54372;SDS011;40271;48.798;10.178;2022-08-30T03:12:29;4.95;;;3.70;;
54372;SDS011;40271;48.798;10.178;2022-08-30T03:14:57;7.13;;;4.28;;
54372;SDS011;40271;48.798;10.178;2022-08-30T03:17:23;4.72;;;3.67;;
54372;SDS011;40271;48.798;10.178;2022-08-30T03:19:49;5.50;;;3.85;;
54372;SDS011;40271;48.798;10.178;2022-08-30T03:22:15;5.30;;;3.70;;
54372;SDS011;40271;48.798;10.178;2022-08-30T03:24:41;5.40;;;3.72;;
54372;SDS011;40271;48.798;10.178;2022-08-30T03:27:07;7.70;;;3.85;;
54372;SDS011;40271;48.798;10.178;2022-08-30T03:29:34;5.38;;;3.80;;
54372;SDS011;40271;48.798;10.178;2022-08-30T03:32:00;7.13;;;3.67;;
54372;SDS011;40271;48.798;10.178;2022-08-30T03:34:26;5.70;;;3.53;;
54372;SDS011;40271;48.798;10.178;2022-08-30T03:36:53;5.70;;;4.00;;
54372;SDS011;40271;48.798;10.178;2022-08-30T03:39:20;5.68;;;3.42;;
54372;SDS011;40271;48.798;10.178;2022-08-30T03:41:46;4.80;;;3.60;;
54372;SDS011;40271;48.798;10.178;2022-08-30T03:44:12;5.07;;;3.88;;
54372;SDS011;40271;48.798;10.178;2022-08-30T03:46:38;5.70;;;3.70;;
54372;SDS011;40271;48.798;10.178;2022-08-30T03:49:05;5.47;;;3.55;;
54372;SDS011;40271;48.798;10.178;2022-08-30T03:51:31;5.97;;;4.10;;
54372;SDS011;40271;48.798;10.178;2022-08-30T03:53:58;6.40;;;4.20;;
54372;SDS011;40271;48.798;10.178;2022-08-30T03:56:24;5.07;;;3.42;;
54372;SDS011;40271;48.798;10.178;2022-08-30T03:58:50;5.80;;;3.75;;
54372;SDS011;40271;48.798;10.178;2022-08-30T04:01:16;6.13;;;3.90;;
54372;SDS011;40271;48.798;10.178;2022-08-30T04:03:43;6.60;;;3.97;;
54372;SDS011;40271;48.798;10.178;2022-08-30T04:06:09;5.80;;;3.75;;
54372;SDS011;40271;48.798;10.178;2022-08-30T04:08:35;6.88;;;4.30;;
54372;SDS011;40271;48.798;10.178;2022-08-30T04:11:02;6.05;;;4.03;;
54372;SDS011;40271;48.798;10.178;2022-08-30T04:13:28;8.38;;;4.38;;
54372;SDS011;40271;48.798;10.178;2022-08-30T04:15:54;7.95;;;4.35;;
54372;SDS011;40271;48.798;10.178;2022-08-30T04:18:20;6.97;;;4.20;;
54372;SDS011;40271;48.798;10.178;2022-08-30T04:20:47;6.97;;;4.20;;
54372;SDS011;40271;48.798;10.178;2022-08-30T04:23:13;5.38;;;3.75;;
54372;SDS011;40271;48.798;10.178;2022-08-30T04:25:39;6.40;;;4.03;;
54372;SDS011;40271;48.798;10.178;2022-08-30T04:28:06;5.38;;;4.28;;
54372;SDS011;40271;48.798;10.178;2022-08-30T04:30:32;5.95;;;3.80;;
54372;SDS011;40271;48.798;10.178;2022-08-30T04:32:59;7.00;;;4.30;;
54372;SDS011;40271;48.798;10.178;2022-08-30T04:35:25;7.03;;;3.78;;
54372;SDS011;40271;48.798;10.178;2022-08-30T04:37:51;7.03;;;4.10;;
54372;SDS011;40271;48.798;10.178;2022-08-30T04:40:17;7.28;;;4.20;;
54372;SDS011;40271;48.798;10.178;2022-08-30T04:42:44;5.93;;;3.97;;
54372;SDS011;40271;48.798;10.178;2022-08-30T04:45:14;6.57;;;3.97;;
54372;SDS011;40271;48.798;10.178;2022-08-30T04:47:41;7.07;;;3.65;;
54372;SDS011;40271;48.798;10.178;2022-08-30T04:50:08;5.95;;;3.97;;
54372;SDS011;40271;48.798;10.178;2022-08-30T04:52:34;8.23;;;4.25;;
54372;SDS011;40271;48.798;10.178;2022-08-30T04:55:00;6.03;;;4.10;;
54372;SDS011;40271;48.798;10.178;2022-08-30T04:57:26;6.47;;;3.78;;
54372;SDS011;40271;48.798;10.178;2022-08-30T04:59:52;5.97;;;3.58;;
54372;SDS011;40271;48.798;10.178;2022-08-30T05:02:19;5.40;;;3.65;;
54372;SDS011;40271;48.798;10.178;2022-08-30T05:04:45;6.95;;;4.38;;
54372;SDS011;40271;48.798;10.178;2022-08-30T05:07:30;6.07;;;4.30;;
54372;SDS011;40271;48.798;10.178;2022-08-30T05:09:56;6.53;;;4.20;;
54372;SDS011;40271;48.798;10.178;2022-08-30T05:12:22;6.75;;;4.40;;
54372;SDS011;40271;48.798;10.178;2022-08-30T05:14:49;4.60;;;3.38;;
54372;SDS011;40271;48.798;10.178;2022-08-30T05:17:16;6.82;;;4.13;;
54372;SDS011;40271;48.798;10.178;2022-08-30T05:19:42;5.95;;;3.80;;
54372;SDS011;40271;48.798;10.178;2022-08-30T05:22:08;6.05;;;4.18;;
54372;SDS011;40271;48.798;10.178;2022-08-30T05:24:34;7.18;;;4.22;;
54372;SDS011;40271;48.798;10.178;2022-08-30T05:27:01;5.22;;;3.80;;
54372;SDS011;40271;48.798;10.178;2022-08-30T05:29:29;10.32;;;4.45;;
54372;SDS011;40271;48.798;10.178;2022-08-30T05:31:55;7.60;;;4.40;;
54372;SDS011;40271;48.798;10.178;2022-08-30T05:34:21;5.85;;;4.20;;
54372;SDS011;40271;48.798;10.178;2022-08-30T05:36:47;7.20;;;4.28;;
54372;SDS011;40271;48.798;10.178;2022-08-30T05:39:13;5.95;;;4.00;;
54372;SDS011;40271;48.798;10.178;2022-08-30T05:41:39;7.68;;;3.92;;
54372;SDS011;40271;48.798;10.178;2022-08-30T05:44:06;7.82;;;4.20;;
54372;SDS011;40271;48.798;10.178;2022-08-30T05:46:32;7.82;;;4.32;;
54372;SDS011;40271;48.798;10.178;2022-08-30T05:48:59;7.65;;;4.03;;
54372;SDS011;40271;48.798;10.178;2022-08-30T05:51:26;7.90;;;4.22;;
54372;SDS011;40271;48.798;10.178;2022-08-30T05:53:53;9.10;;;4.38;;
54372;SDS011;40271;48.798;10.178;2022-08-30T05:56:24;5.47;;;3.90;;
54372;SDS011;40271;48.798;10.178;2022-08-30T05:58:51;7.35;;;4.75;;
54372;SDS011;40271;48.798;10.178;2022-08-30T06:01:18;5.72;;;4.38;;
54372;SDS011;40271;48.798;10.178;2022-08-30T06:03:44;6.93;;;4.13;;
54372;SDS011;40271;48.798;10.178;2022-08-30T06:06:10;6.03;;;4.07;;
54372;SDS011;40271;48.798;10.178;2022-08-30T06:08:36;7.05;;;4.57;;
54372;SDS011;40271;48.798;10.178;2022-08-30T06:11:02;5.55;;;3.85;;
54372;SDS011;40271;48.798;10.178;2022-08-30T06:13:28;6.75;;;4.55;;
54372;SDS011;40271;48.798;10.178;2022-08-30T06:15:55;6.32;;;4.78;;
54372;SDS011;40271;48.798;10.178;2022-08-30T06:18:21;5.22;;;4.13;;
54372;SDS011;40271;48.798;10.178;2022-08-30T06:20:47;9.38;;;4.30;;
54372;SDS011;40271;48.798;10.178;2022-08-30T06:23:15;6.68;;;4.05;;
54372;SDS011;40271;48.798;10.178;2022-08-30T06:25:44;6.18;;;4.75;;
54372;SDS011;40271;48.798;10.178;2022-08-30T06:28:10;7.15;;;3.95;;
54372;SDS011;40271;48.798;10.178;2022-08-30T06:30:38;10.73;;;5.07;;
54372;SDS011;40271;48.798;10.178;2022-08-30T06:33:04;6.93;;;4.55;;
54372;SDS011;40271;48.798;10.178;2022-08-30T06:35:30;7.05;;;4.78;;
54372;SDS011;40271;48.798;10.178;2022-08-30T06:37:56;6.82;;;4.50;;
54372;SDS011;40271;48.798;10.178;2022-08-30T06:40:23;10.35;;;5.30;;
54372;SDS011;40271;48.798;10.178;2022-08-30T06:42:49;7.93;;;5.00;;
54372;SDS011;40271;48.798;10.178;2022-08-30T06:45:15;9.63;;;5.60;;
54372;SDS011;40271;48.798;10.178;2022-08-30T06:47:42;10.70;;;5.53;;
54372;SDS011;40271;48.798;10.178;2022-08-30T06:50:08;8.55;;;5.47;;
54372;SDS011;40271;48.798;10.178;2022-08-30T06:52:34;8.57;;;5.50;;
54372;SDS011;40271;48.798;10.178;2022-08-30T06:55:01;9.18;;;4.78;;
54372;SDS011;40271;48.798;10.178;2022-08-30T06:57:27;7.03;;;4.80;;
54372;SDS011;40271;48.798;10.178;2022-08-30T06:59:56;7.60;;;4.50;;
54372;SDS011;40271;48.798;10.178;2022-08-30T07:02:23;9.10;;;5.37;;
54372;SDS011;40271;48.798;10.178;2022-08-30T07:04:49;7.22;;;5.00;;
54372;SDS011;40271;48.798;10.178;2022-08-30T07:07:15;5.57;;;4.63;;
54372;SDS011;40271;48.798;10.178;2022-08-30T07:09:41;6.88;;;4.38;;
54372;SDS011;40271;48.798;10.178;2022-08-30T07:12:11;7.20;;;4.90;;
54372;SDS011;40271;48.798;10.178;2022-08-30T07:14:39;8.00;;;4.78;;
54372;SDS011;40271;48.798;10.178;2022-08-30T07:17:06;9.13;;;5.38;;
54372;SDS011;40271;48.798;10.178;2022-08-30T07:19:51;8.05;;;4.93;;
54372;SDS011;40271;48.798;10.178;2022-08-30T07:22:18;6.88;;;4.70;;
54372;SDS011;40271;48.798;10.178;2022-08-30T07:24:44;6.38;;;4.97;;
54372;SDS011;40271;48.798;10.178;2022-08-30T07:27:10;8.23;;;5.18;;
54372;SDS011;40271;48.798;10.178;2022-08-30T07:29:36;7.55;;;4.70;;
54372;SDS011;40271;48.798;10.178;2022-08-30T07:32:02;8.40;;;5.05;;
54372;SDS011;40271;48.798;10.178;2022-08-30T07:34:28;6.25;;;4.38;;
54372;SDS011;40271;48.798;10.178;2022-08-30T07:36:54;7.40;;;4.53;;
54372;SDS011;40271;48.798;10.178;2022-08-30T07:39:20;7.00;;;4.72;;
54372;SDS011;40271;48.798;10.178;2022-08-30T07:41:46;5.90;;;4.57;;
54372;SDS011;40271;48.798;10.178;2022-08-30T07:44:13;9.35;;;4.35;;
54372;SDS011;40271;48.798;10.178;2022-08-30T07:46:40;5.22;;;3.97;;
54372;SDS011;40271;48.798;10.178;2022-08-30T07:49:06;7.65;;;4.82;;
54372;SDS011;40271;48.798;10.178;2022-08-30T07:51:33;8.20;;;4.65;;
54372;SDS011;40271;48.798;10.178;2022-08-30T07:54:00;7.22;;;4.63;;
54372;SDS011;40271;48.798;10.178;2022-08-30T07:56:27;6.88;;;4.50;;
54372;SDS011;40271;48.798;10.178;2022-08-30T07:58:53;8.77;;;4.30;;
54372;SDS011;40271;48.798;10.178;2022-08-30T08:01:20;8.45;;;5.55;;
54372;SDS011;40271;48.798;10.178;2022-08-30T08:03:46;7.10;;;5.03;;
54372;SDS011;40271;48.798;10.178;2022-08-30T08:06:14;5.65;;;4.10;;
54372;SDS011;40271;48.798;10.178;2022-08-30T08:08:41;8.82;;;5.13;;
54372;SDS011;40271;48.798;10.178;2022-08-30T08:11:14;6.43;;;4.45;;
54372;SDS011;40271;48.798;10.178;2022-08-30T08:13:41;11.02;;;4.85;;
54372;SDS011;40271;48.798;10.178;2022-08-30T08:16:08;6.22;;;4.80;;
54372;SDS011;40271;48.798;10.178;2022-08-30T08:18:34;6.70;;;4.90;;
54372;SDS011;40271;48.798;10.178;2022-08-30T08:21:00;8.60;;;4.93;;
54372;SDS011;40271;48.798;10.178;2022-08-30T08:23:27;7.65;;;4.43;;
54372;SDS011;40271;48.798;10.178;2022-08-30T08:25:53;7.53;;;5.25;;
54372;SDS011;40271;48.798;10.178;2022-08-30T08:28:19;6.63;;;4.47;;
54372;SDS011;40271;48.798;10.178;2022-08-30T08:30:45;6.43;;;5.03;;
54372;SDS011;40271;48.798;10.178;2022-08-30T08:33:11;7.57;;;4.68;;
54372;SDS011;40271;48.798;10.178;2022-08-30T08:35:38;8.48;;;4.68;;
54372;SDS011;40271;48.798;10.178;2022-08-30T08:38:04;7.63;;;5.20;;
54372;SDS011;40271;48.798;10.178;2022-08-30T08:40:36;8.10;;;5.13;;
54372;SDS011;40271;48.798;10.178;2022-08-30T08:43:07;7.60;;;5.30;;
54372;SDS011;40271;48.798;10.178;2022-08-30T08:50:39;6.93;;;5.00;;
54372;SDS011;40271;48.798;10.178;2022-08-30T08:53:28;5.65;;;4.53;;
54372;SDS011;40271;48.798;10.178;2022-08-30T08:56:02;6.70;;;4.90;;
54372;SDS011;40271;48.798;10.178;2022-08-30T08:58:30;6.25;;;4.70;;
54372;SDS011;40271;48.798;10.178;2022-08-30T09:00:57;6.85;;;5.07;;
54372;SDS011;40271;48.798;10.178;2022-08-30T09:03:25;6.20;;;4.68;;
54372;SDS011;40271;48.798;10.178;2022-08-30T09:05:51;7.18;;;4.10;;
54372;SDS011;40271;48.798;10.178;2022-08-30T09:08:19;6.10;;;3.97;;
54372;SDS011;40271;48.798;10.178;2022-08-30T09:10:51;5.53;;;4.18;;
54372;SDS011;40271;48.798;10.178;2022-08-30T09:13:21;4.78;;;4.22;;
54372;SDS011;40271;48.798;10.178;2022-08-30T09:15:48;4.43;;;3.67;;
54372;SDS011;40271;48.798;10.178;2022-08-30T09:18:14;5.70;;;3.88;;
54372;SDS011;40271;48.798;10.178;2022-08-30T09:20:43;5.57;;;4.30;;
54372;SDS011;40271;48.798;10.178;2022-08-30T09:28:23;4.30;;;3.90;;
54372;SDS011;40271;48.798;10.178;2022-08-30T09:31:00;6.30;;;4.43;;
54372;SDS011;40271;48.798;10.178;2022-08-30T09:33:26;4.30;;;3.60;;
54372;SDS011;40271;48.798;10.178;2022-08-30T09:35:53;5.95;;;4.10;;
54372;SDS011;40271;48.798;10.178;2022-08-30T09:40:46;4.50;;;3.60;;
54372;SDS011;40271;48.798;10.178;2022-08-30T09:45:46;5.82;;;3.80;;
54372;SDS011;40271;48.798;10.178;2022-08-30T09:48:55;4.72;;;3.88;;
54372;SDS011;40271;48.798;10.178;2022-08-30T09:53:59;7.45;;;4.28;;
54372;SDS011;40271;48.798;10.178;2022-08-30T09:59:13;4.82;;;3.75;;
54372;SDS011;40271;48.798;10.178;2022-08-30T10:01:54;4.97;;;3.70;;
54372;SDS011;40271;48.798;10.178;2022-08-30T10:04:47;4.88;;;3.83;;
54372;SDS011;40271;48.798;10.178;2022-08-30T10:10:08;4.60;;;3.65;;
54372;SDS011;40271;48.798;10.178;2022-08-30T10:15:07;4.22;;;3.60;;
54372;SDS011;40271;48.798;10.178;2022-08-30T10:25:31;5.25;;;3.92;;
54372;SDS011;40271;48.798;10.178;2022-08-30T10:30:35;4.32;;;3.47;;
54372;SDS011;40271;48.798;10.178;2022-08-30T10:35:33;5.50;;;3.45;;
54372;SDS011;40271;48.798;10.178;2022-08-30T10:38:02;4.85;;;3.75;;
54372;SDS011;40271;48.798;10.178;2022-08-30T10:40:30;4.83;;;3.73;;
54372;SDS011;40271;48.798;10.178;2022-08-30T10:46:18;6.90;;;3.88;;
54372;SDS011;40271;48.798;10.178;2022-08-30T10:48:47;6.55;;;3.70;;
54372;SDS011;40271;48.798;10.178;2022-08-30T10:51:14;4.32;;;3.67;;
54372;SDS011;40271;48.798;10.178;2022-08-30T10:53:49;5.32;;;3.80;;
54372;SDS011;40271;48.798;10.178;2022-08-30T10:56:19;5.55;;;4.00;;
54372;SDS011;40271;48.798;10.178;2022-08-30T10:58:48;6.70;;;3.85;;
54372;SDS011;40271;48.798;10.178;2022-08-30T11:01:38;4.03;;;3.63;;
54372;SDS011;40271;48.798;10.178;2022-08-30T11:09:13;4.60;;;3.83;;
54372;SDS011;40271;48.798;10.178;2022-08-30T11:14:27;6.35;;;3.22;;
54372;SDS011;40271;48.798;10.178;2022-08-30T11:16:54;4.18;;;3.42;;
54372;SDS011;40271;48.798;10.178;2022-08-30T11:21:47;6.20;;;3.22;;
54372;SDS011;40271;48.798;10.178;2022-08-30T11:31:52;5.47;;;3.40;;
54372;SDS011;40271;48.798;10.178;2022-08-30T11:37:07;4.53;;;3.57;;
54372;SDS011;40271;48.798;10.178;2022-08-30T11:42:23;4.03;;;3.60;;
54372;SDS011;40271;48.798;10.178;2022-08-30T11:44:49;5.47;;;3.53;;
54372;SDS011;40271;48.798;10.178;2022-08-30T11:50:08;5.43;;;3.63;;
54372;SDS011;40271;48.798;10.178;2022-08-30T11:57:52;4.82;;;3.83;;
54372;SDS011;40271;48.798;10.178;2022-08-30T12:00:26;5.68;;;3.30;;
54372;SDS011;40271;48.798;10.178;2022-08-30T12:02:53;4.00;;;3.55;;
54372;SDS011;40271;48.798;10.178;2022-08-30T12:10:36;4.20;;;3.47;;
54372;SDS011;40271;48.798;10.178;2022-08-30T12:13:03;6.20;;;3.90;;
54372;SDS011;40271;48.798;10.178;2022-08-30T12:18:14;5.75;;;3.65;;
54372;SDS011;40271;48.798;10.178;2022-08-30T12:20:55;4.22;;;3.78;;
54372;SDS011;40271;48.798;10.178;2022-08-30T12:25:49;4.40;;;3.70;;
54372;SDS011;40271;48.798;10.178;2022-08-30T12:28:24;3.90;;;3.17;;
54372;SDS011;40271;48.798;10.178;2022-08-30T12:30:50;3.97;;;3.20;;
54372;SDS011;40271;48.798;10.178;2022-08-30T12:33:27;4.13;;;3.60;;
54372;SDS011;40271;48.798;10.178;2022-08-30T12:35:56;5.05;;;3.50;;
54372;SDS011;40271;48.798;10.178;2022-08-30T12:38:23;5.03;;;3.78;;
54372;SDS011;40271;48.798;10.178;2022-08-30T12:40:53;4.43;;;3.13;;
54372;SDS011;40271;48.798;10.178;2022-08-30T12:45:56;5.07;;;4.00;;
54372;SDS011;40271;48.798;10.178;2022-08-30T12:48:24;4.75;;;3.35;;
54372;SDS011;40271;48.798;10.178;2022-08-30T12:50:54;4.45;;;3.60;;
54372;SDS011;40271;48.798;10.178;2022-08-30T12:53:28;3.88;;;3.45;;
54372;SDS011;40271;48.798;10.178;2022-08-30T12:55:59;4.10;;;3.70;;
54372;SDS011;40271;48.798;10.178;2022-08-30T12:58:33;4.13;;;3.38;;
54372;SDS011;40271;48.798;10.178;2022-08-30T13:03:37;4.30;;;3.50;;
54372;SDS011;40271;48.798;10.178;2022-08-30T13:06:05;4.40;;;3.40;;
54372;SDS011;40271;48.798;10.178;2022-08-30T13:11:09;4.60;;;3.17;;
54372;SDS011;40271;48.798;10.178;2022-08-30T13:13:46;4.55;;;3.70;;
54372;SDS011;40271;48.798;10.178;2022-08-30T13:18:45;4.10;;;3.35;;
54372;SDS011;40271;48.798;10.178;2022-08-30T13:21:19;3.90;;;3.42;;
54372;SDS011;40271;48.798;10.178;2022-08-30T13:23:46;5.00;;;3.45;;
54372;SDS011;40271;48.798;10.178;2022-08-30T13:26:12;4.00;;;3.55;;
54372;SDS011;40271;48.798;10.178;2022-08-30T13:28:43;4.85;;;3.65;;
54372;SDS011;40271;48.798;10.178;2022-08-30T13:31:10;3.45;;;3.03;;
54372;SDS011;40271;48.798;10.178;2022-08-30T13:33:36;4.20;;;2.90;;
54372;SDS011;40271;48.798;10.178;2022-08-30T13:36:02;3.35;;;3.05;;
54372;SDS011;40271;48.798;10.178;2022-08-30T13:38:28;4.10;;;3.20;;
54372;SDS011;40271;48.798;10.178;2022-08-30T13:40:54;3.90;;;3.15;;
54372;SDS011;40271;48.798;10.178;2022-08-30T13:43:20;4.30;;;3.05;;
54372;SDS011;40271;48.798;10.178;2022-08-30T13:45:46;5.28;;;3.10;;
54372;SDS011;40271;48.798;10.178;2022-08-30T13:48:12;4.43;;;3.50;;
54372;SDS011;40271;48.798;10.178;2022-08-30T13:50:40;4.10;;;3.50;;
54372;SDS011;40271;48.798;10.178;2022-08-30T13:53:07;4.05;;;3.58;;
54372;SDS011;40271;48.798;10.178;2022-08-30T13:55:34;3.45;;;3.15;;
54372;SDS011;40271;48.798;10.178;2022-08-30T13:58:00;4.32;;;3.22;;
54372;SDS011;40271;48.798;10.178;2022-08-30T14:00:26;5.15;;;3.58;;
54372;SDS011;40271;48.798;10.178;2022-08-30T14:02:52;4.78;;;3.58;;
54372;SDS011;40271;48.798;10.178;2022-08-30T14:05:25;5.93;;;3.70;;
54372;SDS011;40271;48.798;10.178;2022-08-30T14:07:54;4.03;;;3.40;;
54372;SDS011;40271;48.798;10.178;2022-08-30T14:10:20;4.90;;;3.05;;
54372;SDS011;40271;48.798;10.178;2022-08-30T14:12:49;3.83;;;3.00;;
54372;SDS011;40271;48.798;10.178;2022-08-30T14:15:15;3.30;;;3.00;;
54372;SDS011;40271;48.798;10.178;2022-08-30T14:17:41;3.70;;;3.25;;
54372;SDS011;40271;48.798;10.178;2022-08-30T14:20:07;5.00;;;3.30;;
54372;SDS011;40271;48.798;10.178;2022-08-30T14:22:33;3.60;;;3.20;;
54372;SDS011;40271;48.798;10.178;2022-08-30T14:24:59;4.38;;;3.45;;
54372;SDS011;40271;48.798;10.178;2022-08-30T14:27:26;4.15;;;3.58;;
54372;SDS011;40271;48.798;10.178;2022-08-30T14:29:52;9.38;;;3.72;;
54372;SDS011;40271;48.798;10.178;2022-08-30T14:32:18;4.15;;;3.28;;
54372;SDS011;40271;48.798;10.178;2022-08-30T14:34:44;5.22;;;3.47;;
54372;SDS011;40271;48.798;10.178;2022-08-30T14:37:10;6.07;;;3.60;;
54372;SDS011;40271;48.798;10.178;2022-08-30T14:39:36;6.80;;;3.90;;
54372;SDS011;40271;48.798;10.178;2022-08-30T14:42:02;5.13;;;3.25;;
54372;SDS011;40271;48.798;10.178;2022-08-30T14:44:28;5.25;;;3.53;;
54372;SDS011;40271;48.798;10.178;2022-08-30T14:46:54;7.30;;;3.90;;
54372;SDS011;40271;48.798;10.178;2022-08-30T14:49:21;6.22;;;3.53;;
54372;SDS011;40271;48.798;10.178;2022-08-30T14:51:47;5.00;;;3.45;;
54372;SDS011;40271;48.798;10.178;2022-08-30T14:54:17;5.32;;;3.50;;
54372;SDS011;40271;48.798;10.178;2022-08-30T14:59:09;3.80;;;3.45;;
54372;SDS011;40271;48.798;10.178;2022-08-30T15:01:36;4.40;;;3.70;;
54372;SDS011;40271;48.798;10.178;2022-08-30T15:04:03;5.47;;;3.80;;
54372;SDS011;40271;48.798;10.178;2022-08-30T15:06:29;6.70;;;3.80;;
54372;SDS011;40271;48.798;10.178;2022-08-30T15:08:56;7.00;;;3.58;;
54372;SDS011;40271;48.798;10.178;2022-08-30T15:11:22;4.70;;;3.80;;
54372;SDS011;40271;48.798;10.178;2022-08-30T15:13:49;5.60;;;3.60;;
54372;SDS011;40271;48.798;10.178;2022-08-30T15:16:30;7.75;;;4.00;;
54372;SDS011;40271;48.798;10.178;2022-08-30T15:18:56;4.18;;;3.45;;
54372;SDS011;40271;48.798;10.178;2022-08-30T15:21:27;4.80;;;3.35;;
54372;SDS011;40271;48.798;10.178;2022-08-30T15:23:54;4.20;;;3.40;;
54372;SDS011;40271;48.798;10.178;2022-08-30T15:26:20;4.13;;;3.22;;
54372;SDS011;40271;48.798;10.178;2022-08-30T15:28:47;4.88;;;3.58;;
54372;SDS011;40271;48.798;10.178;2022-08-30T15:31:13;5.18;;;3.53;;
54372;SDS011;40271;48.798;10.178;2022-08-30T15:33:39;4.95;;;3.30;;
54372;SDS011;40271;48.798;10.178;2022-08-30T15:36:06;4.22;;;3.63;;
54372;SDS011;40271;48.798;10.178;2022-08-30T15:38:32;5.15;;;3.55;;
54372;SDS011;40271;48.798;10.178;2022-08-30T15:41:00;5.35;;;3.78;;
54372;SDS011;40271;48.798;10.178;2022-08-30T15:43:27;5.43;;;3.30;;
54372;SDS011;40271;48.798;10.178;2022-08-30T15:45:53;4.95;;;3.20;;
54372;SDS011;40271;48.798;10.178;2022-08-30T15:48:20;4.63;;;3.35;;
54372;SDS011;40271;48.798;10.178;2022-08-30T15:50:53;4.00;;;3.30;;
54372;SDS011;40271;48.798;10.178;2022-08-30T15:53:20;4.57;;;3.22;;
54372;SDS011;40271;48.798;10.178;2022-08-30T15:55:46;5.78;;;3.33;;
54372;SDS011;40271;48.798;10.178;2022-08-30T15:58:12;3.85;;;3.00;;
54372;SDS011;40271;48.798;10.178;2022-08-30T16:00:38;3.60;;;3.15;;
54372;SDS011;40271;48.798;10.178;2022-08-30T16:03:05;5.75;;;4.05;;
54372;SDS011;40271;48.798;10.178;2022-08-30T16:05:31;3.90;;;3.20;;
54372;SDS011;40271;48.798;10.178;2022-08-30T16:07:57;4.53;;;3.20;;
54372;SDS011;40271;48.798;10.178;2022-08-30T16:10:23;4.30;;;3.17;;
54372;SDS011;40271;48.798;10.178;2022-08-30T16:12:49;4.45;;;3.30;;
54372;SDS011;40271;48.798;10.178;2022-08-30T16:15:15;3.67;;;2.95;;
54372;SDS011;40271;48.798;10.178;2022-08-30T16:17:41;3.28;;;2.70;;